sensor_id;sensor_type;location;lat;lon;timestamp;pressure;altitude;pressure_sealevel;temperature;humidity
69593;BME280;56796;50.122;14.468;2024-01-07T00:13:58;973.51;;;0.23;100
69593;BME280;56796;50.122;14.468;2024-01-07T00:33:23;973.62;;;0.1;100
69593;BME280;56796;50.122;14.468;2024-01-07T00:52:49;973.69;;;-0.14;100
69593;BME280;56796;50.122;14.468;2024-01-07T01:12:18;973.92;;;-0.33;100
69593;BME280;56796;50.122;14.468;2024-01-07T01:31:35;973.94;;;-0.36;99.41
69593;BME280;56796;50.122;14.468;2024-01-07T01:51:01;974.07;;;-0.47;98.25
69593;BME280;56796;50.122;14.468;2024-01-07T02:10:26;974.08;;;-0.56;97.77
69593;BME280;56796;50.122;14.468;2024-01-07T02:29:52;974.17;;;-0.69;96.54
69593;BME280;56796;50.122;14.468;2024-01-07T02:49:24;974.41;;;-0.77;96.06
69593;BME280;56796;50.122;14.468;2024-01-07T03:08:38;974.4;;;-0.92;95.89
69593;BME280;56796;50.122;14.468;2024-01-07T03:28:04;974.45;;;-0.94;95.5
69593;BME280;56796;50.122;14.468;2024-01-07T03:47:29;974.58;;;-0.99;95.48
69593;BME280;56796;50.122;14.468;2024-01-07T04:06:56;974.73;;;-1.12;95.26
69593;BME280;56796;50.122;14.468;2024-01-07T04:26:21;974.84;;;-1.14;94.67
69593;BME280;56796;50.122;14.468;2024-01-07T04:45:47;975.03;;;-1.29;94.51
69593;BME280;56796;50.122;14.468;2024-01-07T05:05:13;975.3;;;-1.38;94.79
69593;BME280;56796;50.122;14.468;2024-01-07T05:24:38;975.45;;;-1.56;95.56
69593;BME280;56796;50.122;14.468;2024-01-07T05:44:06;975.76;;;-1.65;95.42
69593;BME280;56796;50.122;14.468;2024-01-07T06:03:29;975.82;;;-1.89;96.23
69593;BME280;56796;50.122;14.468;2024-01-07T06:22:55;976.1;;;-2.01;97.07
69593;BME280;56796;50.122;14.468;2024-01-07T06:42:21;976.37;;;-2.07;97.02
69593;BME280;56796;50.122;14.468;2024-01-07T07:01:46;976.68;;;-2.2;97.02
69593;BME280;56796;50.122;14.468;2024-01-07T07:21:11;976.92;;;-2.25;96.13
69593;BME280;56796;50.122;14.468;2024-01-07T07:40:38;977.28;;;-2.01;94.8
69593;BME280;56796;50.122;14.468;2024-01-07T08:00:06;977.31;;;-2.01;94.12
69593;BME280;56796;50.122;14.468;2024-01-07T08:19:30;977.51;;;-1.99;93.34
69593;BME280;56796;50.122;14.468;2024-01-07T08:38:57;977.83;;;-1.98;93.22
69593;BME280;56796;50.122;14.468;2024-01-07T08:58:23;978.04;;;-1.97;92.53
69593;BME280;56796;50.122;14.468;2024-01-07T09:17:49;978.16;;;-2.04;91.22
69593;BME280;56796;50.122;14.468;2024-01-07T09:37:14;978.17;;;-1.99;90.15
69593;BME280;56796;50.122;14.468;2024-01-07T09:56:42;978.22;;;-1.91;89.59
69593;BME280;56796;50.122;14.468;2024-01-07T10:16:10;978.25;;;-2.03;88.58
69593;BME280;56796;50.122;14.468;2024-01-07T10:35:29;978.24;;;-2.09;87.72
69593;BME280;56796;50.122;14.468;2024-01-07T10:54:53;978.37;;;-2.08;86.44
69593;BME280;56796;50.122;14.468;2024-01-07T11:33:48;978.5;;;-1.65;84.01
69593;BME280;56796;50.122;14.468;2024-01-07T11:53:15;978.59;;;-1.09;81.48
69593;BME280;56796;50.122;14.468;2024-01-07T12:12:43;978.46;;;-0.22;79.97
69593;BME280;56796;50.122;14.468;2024-01-07T12:32:11;978.8;;;-0.68;78.15
69593;BME280;56796;50.122;14.468;2024-01-07T12:51:37;978.95;;;-1.08;77.83
69593;BME280;56796;50.122;14.468;2024-01-07T13:11:03;979.13;;;-1.79;77.82
69593;BME280;56796;50.122;14.468;2024-01-07T13:30:23;979.46;;;-2.29;79.17
69593;BME280;56796;50.122;14.468;2024-01-07T13:49:50;979.66;;;-2.48;78.09
69593;BME280;56796;50.122;14.468;2024-01-07T14:09:09;979.78;;;-2.82;77.2
69593;BME280;56796;50.122;14.468;2024-01-07T14:28:26;980.13;;;-2.92;78.49
69593;BME280;56796;50.122;14.468;2024-01-07T14:47:52;980.31;;;-3.1;78.76
69593;BME280;56796;50.122;14.468;2024-01-07T15:07:16;980.48;;;-3.73;79.55
69593;BME280;56796;50.122;14.468;2024-01-07T15:26:39;980.6;;;-4.03;81.13
69593;BME280;56796;50.122;14.468;2024-01-07T15:46:04;980.75;;;-4.21;81.96
69593;BME280;56796;50.122;14.468;2024-01-07T16:05:28;981.27;;;-4.29;83.05
69593;BME280;56796;50.122;14.468;2024-01-07T16:24:55;981.48;;;-4.44;82.97
69593;BME280;56796;50.122;14.468;2024-01-07T16:44:13;981.69;;;-4.25;83.87
69593;BME280;56796;50.122;14.468;2024-01-07T17:03:39;981.87;;;-4.5;83.26
69593;BME280;56796;50.122;14.468;2024-01-07T17:23:05;982.13;;;-4.61;83.35
69593;BME280;56796;50.122;14.468;2024-01-07T17:42:29;982.32;;;-4.75;83.38
69593;BME280;56796;50.122;14.468;2024-01-07T18:01:54;982.47;;;-4.61;83.2
69593;BME280;56796;50.122;14.468;2024-01-07T18:21:20;982.7;;;-4.67;82.71
69593;BME280;56796;50.122;14.468;2024-01-07T18:40:46;982.86;;;-4.56;82.9
69593;BME280;56796;50.122;14.468;2024-01-07T19:00:12;983.04;;;-4.44;83.43
69593;BME280;56796;50.122;14.468;2024-01-07T19:19:37;983.01;;;-4.67;82.86
69593;BME280;56796;50.122;14.468;2024-01-07T19:39:02;983.32;;;-4.69;83.41
69593;BME280;56796;50.122;14.468;2024-01-07T19:58:27;983.32;;;-4.59;83.63
69593;BME280;56796;50.122;14.468;2024-01-07T20:17:53;983.4;;;-4.48;83.92
69593;BME280;56796;50.122;14.468;2024-01-07T20:37:19;983.61;;;-4.5;84.28
69593;BME280;56796;50.122;14.468;2024-01-07T21:16:12;983.74;;;-4.53;84.37
69593;BME280;56796;50.122;14.468;2024-01-07T21:35:37;983.69;;;-4.46;84.6
69593;BME280;56796;50.122;14.468;2024-01-07T21:55:05;983.76;;;-4.4;85.12
69593;BME280;56796;50.122;14.468;2024-01-07T22:14:23;983.83;;;-4.41;85
69593;BME280;56796;50.122;14.468;2024-01-07T22:33:48;983.96;;;-4.62;84.18
69593;BME280;56796;50.122;14.468;2024-01-07T22:53:13;984.22;;;-4.75;84.2
69593;BME280;56796;50.122;14.468;2024-01-07T23:12:41;984.33;;;-4.89;83.91
69593;BME280;56796;50.122;14.468;2024-01-07T23:31:59;984.49;;;-4.87;83.92
69593;BME280;56796;50.122;14.468;2024-01-07T23:51:25;984.54;;;-4.85;83.79
